Terminal Aerodrome Forecast
Issued by NWS

Home | Current Version | Previous Version | Text Only | Print | Product List | Glossary On
Versions: 1 2 3 4 5 6 7 8 9 10 11 12 13 14 15 16 17
000
FTUS43 KICT 122300
TAFHUT
TAF
KHUT 122322Z 1300/1324 21012KT P6SM SKC
     FM130100 18007KT P6SM SKC
     FM131000 36007KT P6SM SCT100
     FM131300 02010KT P6SM BKN100=

USA.gov is the U.S. government's official web portal to all federal, state and local government web resources and services.